createdAt,value
2023-11-07T00:01:33.933Z,58.00
2023-11-07T00:04:10.096Z,50.00
2023-11-07T00:06:41.532Z,53.00
2023-11-07T00:09:10.112Z,52.00
2023-11-07T00:11:39.306Z,51.50
2023-11-07T00:14:07.394Z,54.00
2023-11-07T00:16:35.545Z,51.50
2023-11-07T00:19:06.498Z,54.00
2023-11-07T00:21:34.819Z,48.50
2023-11-07T00:24:03.287Z,48.50
2023-11-07T00:26:31.364Z,52.00
2023-11-07T00:28:59.590Z,51.67
2023-11-07T00:31:27.699Z,54.50
2023-11-07T00:33:56.042Z,58.00
2023-11-07T00:36:24.995Z,56.00
2023-11-07T00:38:53.132Z,52.50
2023-11-07T00:41:21.211Z,52.00
2023-11-07T00:43:49.331Z,54.50
2023-11-07T00:46:17.586Z,53.50
2023-11-07T00:48:45.992Z,53.00
2023-11-07T00:51:14.134Z,56.00
2023-11-07T00:53:42.236Z,54.00
2023-11-07T00:56:10.445Z,56.00
2023-11-07T00:58:38.529Z,47.00
2023-11-07T01:01:06.807Z,45.00
2023-11-07T01:03:35.135Z,42.00
2023-11-07T01:06:04.024Z,47.00
2023-11-07T01:08:32.147Z,40.50
2023-11-07T01:11:00.175Z,44.00
2023-11-07T01:13:29.068Z,42.00
2023-11-07T01:15:57.031Z,47.00
2023-11-07T01:18:25.323Z,44.00
2023-11-07T01:20:53.432Z,44.50
2023-11-07T01:23:21.532Z,40.00
2023-11-07T01:25:49.673Z,44.50
2023-11-07T01:28:21.800Z,46.00
2023-11-07T01:30:50.165Z,42.00
2023-11-07T01:33:18.997Z,38.50
2023-11-07T01:35:47.258Z,41.00
2023-11-07T01:38:15.416Z,41.67
2023-11-07T01:40:43.376Z,43.00
2023-11-07T01:43:17.048Z,42.75
2023-11-07T01:45:45.658Z,44.50
2023-11-07T01:48:14.835Z,39.00
2023-11-07T01:50:43.842Z,40.33
2023-11-07T01:53:12.001Z,41.00
2023-11-07T01:55:42.081Z,36.50
2023-11-07T01:58:11.193Z,39.50
2023-11-07T02:00:41.417Z,44.50
2023-11-07T02:03:09.890Z,51.50
2023-11-07T02:05:38.491Z,49.00
2023-11-07T02:08:06.753Z,48.00
2023-11-07T02:10:34.709Z,44.00
2023-11-07T02:13:02.801Z,45.00
2023-11-07T02:18:06.304Z,43.33
2023-11-07T02:20:39.797Z,43.50
2023-11-07T02:23:12.202Z,42.00
2023-11-07T02:25:40.189Z,43.67
2023-11-07T02:28:08.548Z,48.00
2023-11-07T02:30:37.861Z,44.00
2023-11-07T02:33:06.508Z,52.00
2023-11-07T02:35:35.184Z,51.50
2023-11-07T02:38:04.128Z,51.00
2023-11-07T02:40:32.355Z,49.50
2023-11-07T02:43:03.778Z,53.00
2023-11-07T02:45:32.816Z,54.00
2023-11-07T02:48:00.863Z,52.00
2023-11-07T02:50:29.133Z,52.50
2023-11-07T02:52:57.768Z,54.00
2023-11-07T02:55:25.696Z,54.00
2023-11-07T02:57:53.715Z,50.00
2023-11-07T03:00:21.884Z,47.50
2023-11-07T03:02:50.163Z,41.00
2023-11-07T03:05:19.042Z,30.00
2023-11-07T03:07:47.116Z,31.00
2023-11-07T03:10:16.111Z,28.00
2023-11-07T03:12:44.116Z,29.00
2023-11-07T03:15:12.355Z,33.50
2023-11-07T03:17:42.296Z,27.67
2023-11-07T03:20:11.183Z,32.00
2023-11-07T03:22:39.166Z,30.33
2023-11-07T03:25:07.664Z,32.00
2023-11-07T03:27:35.680Z,30.00
2023-11-07T03:32:35.051Z,31.00
2023-11-07T03:35:03.236Z,33.00
2023-11-07T03:37:31.783Z,30.50
2023-11-07T03:39:59.755Z,32.00
2023-11-07T03:42:28.088Z,29.00
2023-11-07T03:44:56.204Z,28.00
2023-11-07T03:47:24.260Z,29.50
2023-11-07T03:49:53.153Z,25.00
2023-11-07T03:52:21.161Z,31.50
2023-11-07T03:54:49.373Z,24.75
2023-11-07T03:57:17.319Z,27.00
2023-11-07T03:59:46.479Z,27.00
2023-11-07T04:02:14.626Z,26.33
2023-11-07T04:04:42.570Z,24.00
2023-11-07T04:07:10.573Z,26.00
2023-11-07T04:09:38.872Z,23.00
2023-11-07T04:12:07.330Z,25.00
2023-11-07T04:14:35.349Z,25.67
2023-11-07T04:17:06.037Z,30.00
2023-11-07T04:19:34.903Z,26.50
2023-11-07T04:22:05.394Z,29.50
2023-11-07T04:24:33.474Z,28.67
2023-11-07T04:27:01.732Z,23.50
2023-11-07T04:29:29.793Z,29.00
2023-11-07T04:31:57.848Z,26.00
2023-11-07T04:34:25.855Z,29.00
2023-11-07T04:36:57.448Z,35.00
2023-11-07T04:39:25.466Z,27.25
2023-11-07T04:41:53.633Z,30.00
2023-11-07T04:44:21.690Z,27.67
2023-11-07T04:46:49.689Z,29.50
2023-11-07T04:49:17.847Z,30.33
2023-11-07T04:51:47.256Z,23.00
2023-11-07T04:54:15.450Z,25.00
2023-11-07T04:56:45.552Z,24.00
2023-11-07T04:59:14.591Z,32.00
2023-11-07T05:01:46.312Z,35.67
2023-11-07T05:04:15.562Z,25.00
2023-11-07T05:06:44.105Z,33.00
2023-11-07T05:09:13.927Z,26.00
2023-11-07T05:11:42.698Z,24.00
2023-11-07T05:14:11.110Z,23.00
2023-11-07T05:16:40.017Z,24.50
2023-11-07T05:19:09.420Z,23.00
2023-11-07T05:21:38.057Z,24.00
2023-11-07T05:24:06.556Z,27.00
2023-11-07T05:26:34.573Z,22.50
2023-11-07T05:29:02.541Z,24.50
2023-11-07T05:31:32.611Z,24.50
2023-11-07T05:34:01.889Z,28.00
2023-11-07T05:36:30.018Z,31.00
2023-11-07T05:38:58.239Z,29.00
2023-11-07T05:41:26.716Z,27.00
2023-11-07T05:43:55.285Z,21.00
2023-11-07T05:46:24.784Z,19.00
2023-11-07T05:48:53.265Z,18.00
2023-11-07T05:51:24.686Z,20.00
2023-11-07T05:53:53.061Z,25.50
2023-11-07T05:56:22.222Z,34.00
2023-11-07T05:58:50.928Z,43.00
2023-11-07T06:01:19.400Z,38.00
2023-11-07T06:03:47.811Z,31.50
2023-11-07T06:06:15.968Z,32.00
2023-11-07T06:08:44.308Z,33.00
2023-11-07T06:11:12.331Z,25.00
2023-11-07T06:13:40.281Z,34.00
2023-11-07T06:16:08.683Z,30.00
2023-11-07T06:18:36.847Z,33.50
2023-11-07T06:21:05.324Z,34.00
2023-11-07T06:23:33.958Z,26.00
2023-11-07T06:26:01.954Z,23.00
2023-11-07T06:28:30.219Z,21.00
2023-11-07T06:30:58.206Z,20.33
2023-11-07T06:33:26.371Z,18.00
2023-11-07T06:35:54.633Z,20.00
2023-11-07T06:38:26.781Z,14.00
2023-11-07T06:40:57.058Z,17.50
2023-11-07T06:43:26.610Z,18.00
2023-11-07T06:45:54.703Z,15.00
2023-11-07T06:48:22.936Z,16.00
2023-11-07T06:50:51.220Z,18.00
2023-11-07T06:53:19.191Z,18.00
2023-11-07T06:55:47.368Z,20.00
2023-11-07T06:58:15.570Z,14.25
2023-11-07T07:00:45.665Z,16.00
2023-11-07T07:03:13.842Z,16.00
2023-11-07T07:05:42.141Z,17.00
2023-11-07T07:08:10.491Z,18.00
2023-11-07T07:10:39.536Z,17.50
2023-11-07T07:13:07.526Z,16.25
2023-11-07T07:15:38.095Z,19.50
2023-11-07T07:18:07.731Z,23.00
2023-11-07T07:20:39.110Z,22.00
2023-11-07T07:23:08.060Z,23.00
2023-11-07T07:25:37.811Z,19.50
2023-11-07T07:28:07.517Z,19.00
2023-11-07T07:30:38.807Z,23.00
2023-11-07T07:33:10.483Z,19.00
2023-11-07T07:35:38.961Z,26.33
2023-11-07T07:38:10.553Z,28.00
2023-11-07T07:40:39.729Z,31.00
2023-11-07T07:43:12.625Z,33.00
2023-11-07T07:45:44.743Z,25.00
2023-11-07T07:48:13.198Z,29.00
2023-11-07T07:50:48.008Z,27.00
2023-11-07T07:53:16.782Z,31.00
2023-11-07T07:55:45.656Z,28.00
2023-11-07T07:58:20.618Z,27.50
2023-11-07T08:00:54.004Z,25.00
2023-11-07T08:03:23.601Z,20.00
2023-11-07T08:05:54.514Z,20.50
2023-11-07T08:08:22.668Z,18.00
2023-11-07T08:10:50.707Z,19.00
2023-11-07T08:13:19.928Z,23.00
2023-11-07T08:15:51.655Z,21.00
2023-11-07T08:18:20.069Z,19.00
2023-11-07T08:20:48.351Z,16.50
2023-11-07T08:23:16.658Z,16.00
2023-11-07T08:25:44.764Z,18.67
2023-11-07T08:28:12.826Z,14.00
2023-11-07T08:30:45.411Z,20.00
2023-11-07T08:33:14.580Z,19.00
2023-11-07T08:35:42.949Z,19.67
2023-11-07T08:38:11.072Z,18.00
2023-11-07T08:40:39.478Z,21.00
2023-11-07T08:43:07.716Z,21.00
2023-11-07T08:45:36.724Z,23.00
2023-11-07T08:48:05.479Z,20.00
2023-11-07T08:50:34.177Z,21.67
2023-11-07T08:53:06.759Z,28.50
2023-11-07T08:55:35.236Z,24.00
2023-11-07T08:58:04.564Z,27.00
2023-11-07T09:00:35.734Z,26.00
2023-11-07T09:03:04.603Z,30.50
2023-11-07T09:08:04.150Z,30.00
2023-11-07T09:10:35.568Z,30.50
2023-11-07T09:13:04.833Z,31.00
2023-11-07T09:15:33.150Z,34.00
2023-11-07T09:18:01.781Z,32.00
2023-11-07T09:20:30.616Z,35.50
2023-11-07T09:22:58.663Z,31.50
2023-11-07T09:25:26.823Z,27.00
2023-11-07T09:27:54.914Z,34.33
2023-11-07T09:30:23.304Z,32.33
2023-11-07T09:32:52.273Z,30.50
2023-11-07T09:35:20.953Z,33.00
2023-11-07T09:37:51.272Z,30.50
2023-11-07T09:40:23.457Z,30.00
2023-11-07T09:42:54.714Z,31.00
2023-11-07T09:45:23.479Z,32.33
2023-11-07T09:47:52.373Z,30.00
2023-11-07T09:50:24.409Z,29.33
2023-11-07T09:52:56.192Z,32.00
2023-11-07T09:55:29.377Z,30.50
2023-11-07T09:58:23.938Z,32.00
2023-11-07T10:00:53.986Z,28.50
2023-11-07T10:03:22.252Z,30.00
2023-11-07T10:05:51.995Z,29.00
2023-11-07T10:08:24.582Z,32.00
2023-11-07T10:11:12.443Z,30.75
2023-11-07T10:14:01.233Z,31.50
2023-11-07T10:16:46.134Z,29.50
2023-11-07T10:19:17.647Z,30.00
2023-11-07T10:21:46.251Z,29.50
2023-11-07T10:24:16.492Z,29.00
2023-11-07T10:26:52.431Z,28.50
2023-11-07T10:29:27.007Z,30.00
2023-11-07T10:32:07.483Z,31.00
2023-11-07T10:34:37.280Z,36.50
2023-11-07T10:37:08.431Z,26.75
2023-11-07T10:39:36.842Z,23.67
2023-11-07T10:42:19.998Z,25.33
2023-11-07T10:44:51.523Z,30.00
2023-11-07T10:47:21.505Z,25.00
2023-11-07T10:49:52.836Z,26.00
2023-11-07T10:52:21.743Z,23.00
2023-11-07T10:54:50.219Z,23.00
2023-11-07T10:57:24.721Z,15.00
2023-11-07T11:00:04.704Z,19.00
2023-11-07T11:02:34.751Z,18.00
2023-11-07T11:05:03.569Z,22.00
2023-11-07T11:07:33.515Z,19.50
2023-11-07T11:10:03.729Z,24.67
2023-11-07T11:12:34.140Z,24.50
2023-11-07T11:15:03.213Z,26.00
2023-11-07T11:17:39.856Z,19.00
2023-11-07T11:20:25.028Z,32.00
2023-11-07T11:23:03.980Z,27.50
2023-11-07T11:25:42.762Z,30.00
2023-11-07T11:28:10.819Z,27.00
2023-11-07T11:30:40.107Z,30.50
2023-11-07T11:33:12.853Z,33.33
2023-11-07T11:35:42.905Z,28.50
2023-11-07T11:38:24.794Z,26.00
2023-11-07T11:40:54.516Z,29.50
2023-11-07T11:43:25.085Z,31.00
2023-11-07T11:46:00.312Z,30.00
2023-11-07T11:48:53.970Z,28.00
2023-11-07T11:51:38.095Z,30.50
2023-11-07T11:54:11.697Z,32.00
2023-11-07T11:56:52.363Z,26.50
2023-11-07T11:59:22.049Z,31.00
2023-11-07T12:01:53.953Z,30.50
2023-11-07T12:04:37.136Z,30.00
2023-11-07T12:07:09.212Z,28.00
2023-11-07T12:09:39.663Z,29.00
2023-11-07T12:12:09.446Z,34.00
2023-11-07T12:14:59.257Z,30.50
2023-11-07T12:17:52.994Z,26.00
2023-11-07T12:20:21.007Z,26.00
2023-11-07T12:22:49.640Z,28.00
2023-11-07T12:25:22.280Z,33.00
2023-11-07T12:28:05.904Z,24.00
2023-11-07T12:30:38.241Z,28.00
2023-11-07T12:33:11.297Z,29.00
2023-11-07T12:35:40.674Z,31.50
2023-11-07T12:38:10.721Z,29.33
2023-11-07T12:40:41.239Z,28.00
2023-11-07T12:43:10.404Z,26.00
2023-11-07T12:45:40.458Z,29.00
2023-11-07T12:48:15.404Z,26.00
2023-11-07T12:50:45.357Z,27.00
2023-11-07T12:53:16.527Z,27.00
2023-11-07T12:55:55.619Z,22.00
2023-11-07T12:58:31.509Z,20.50
2023-11-07T13:01:05.342Z,24.00
2023-11-07T13:03:35.405Z,16.00
2023-11-07T13:06:06.749Z,13.00
2023-11-07T13:08:38.767Z,15.00
2023-11-07T13:11:14.383Z,14.00
2023-11-07T13:13:44.499Z,16.50
2023-11-07T13:16:13.317Z,14.67
2023-11-07T13:18:48.831Z,13.67
2023-11-07T13:21:21.814Z,15.00
2023-11-07T13:23:50.652Z,13.50
2023-11-07T13:26:20.336Z,16.00
2023-11-07T13:28:48.422Z,16.33
2023-11-07T13:31:16.666Z,16.00
2023-11-07T13:33:46.962Z,16.00
2023-11-07T13:36:16.799Z,14.00
2023-11-07T13:38:49.092Z,15.33
2023-11-07T13:41:17.834Z,18.00
2023-11-07T13:43:46.060Z,19.00
2023-11-07T13:46:19.139Z,12.50
2023-11-07T13:48:51.800Z,10.00
2023-11-07T13:51:22.143Z,13.00
2023-11-07T13:53:52.368Z,9.00
2023-11-07T13:56:22.189Z,12.50
2023-11-07T13:58:50.764Z,10.00
2023-11-07T14:01:18.869Z,11.00
2023-11-07T14:03:47.463Z,9.00
2023-11-07T14:06:17.835Z,9.50
2023-11-07T14:08:47.141Z,9.00
2023-11-07T14:11:17.973Z,9.00
2023-11-07T14:13:49.023Z,11.00
2023-11-07T14:16:18.307Z,7.00
2023-11-07T14:18:50.117Z,9.00
2023-11-07T14:21:18.559Z,7.00
2023-11-07T14:23:47.167Z,6.00
2023-11-07T14:26:16.389Z,10.00
2023-11-07T14:28:55.006Z,9.00
2023-11-07T14:31:31.128Z,13.00
2023-11-07T14:34:00.387Z,9.67
2023-11-07T14:36:29.380Z,13.00
2023-11-07T14:38:57.858Z,11.00
2023-11-07T14:41:28.394Z,11.00
2023-11-07T14:43:57.842Z,13.33
2023-11-07T14:46:25.877Z,20.00
2023-11-07T14:48:56.960Z,35.00
2023-11-07T14:51:25.107Z,24.50
2023-11-07T14:53:54.577Z,21.67
2023-11-07T14:56:24.251Z,23.00
2023-11-07T14:58:52.353Z,21.00
2023-11-07T15:01:20.467Z,18.00
2023-11-07T15:03:48.736Z,22.00
2023-11-07T15:06:17.345Z,27.50
2023-11-07T15:08:47.538Z,19.00
2023-11-07T15:11:15.647Z,22.00
2023-11-07T15:13:44.780Z,34.00
2023-11-07T15:16:12.882Z,29.50
2023-11-07T15:18:43.935Z,25.00
2023-11-07T15:21:12.890Z,20.50
2023-11-07T15:23:41.863Z,22.00
2023-11-07T15:26:09.909Z,23.67
2023-11-07T15:28:37.968Z,34.00
2023-11-07T15:31:05.929Z,32.00
2023-11-07T15:33:34.036Z,28.50
2023-11-07T15:36:03.054Z,25.33
2023-11-07T15:38:32.302Z,18.50
2023-11-07T15:41:01.869Z,52.00
2023-11-07T15:43:29.916Z,32.00
2023-11-07T15:45:57.815Z,33.00
2023-11-07T15:48:25.969Z,48.00
2023-11-07T15:50:54.375Z,44.50
2023-11-07T15:53:22.281Z,47.00
2023-11-07T15:55:50.215Z,44.00
2023-11-07T15:58:18.267Z,38.00
2023-11-07T16:00:51.072Z,51.00
2023-11-07T16:03:19.870Z,93.50
2023-11-07T16:05:48.384Z,79.50
2023-11-07T16:08:17.144Z,117.00
2023-11-07T16:10:46.247Z,80.50
2023-11-07T16:13:15.460Z,39.00
2023-11-07T16:15:43.450Z,58.00
2023-11-07T16:18:12.363Z,82.00
2023-11-07T16:23:12.418Z,36.50
2023-11-07T16:25:40.565Z,30.50
2023-11-07T16:28:08.881Z,33.00
2023-11-07T16:30:38.420Z,56.50
2023-11-07T16:33:11.255Z,57.00
2023-11-07T16:35:39.546Z,41.00
2023-11-07T16:38:08.046Z,34.00
2023-11-07T16:40:36.153Z,32.00
2023-11-07T16:43:06.313Z,30.00
2023-11-07T16:45:34.866Z,33.00
2023-11-07T16:48:05.086Z,26.00
2023-11-07T16:50:34.333Z,22.00
2023-11-07T16:53:02.661Z,41.00
2023-11-07T16:55:30.623Z,33.00
2023-11-07T16:58:01.827Z,34.00
2023-11-07T17:00:31.485Z,34.00
2023-11-07T17:02:59.765Z,37.00
2023-11-07T17:05:29.480Z,28.00
2023-11-07T17:07:57.412Z,26.00
2023-11-07T17:10:26.023Z,28.00
2023-11-07T17:12:54.090Z,36.50
2023-11-07T17:15:22.244Z,37.00
2023-11-07T17:17:52.483Z,37.33
2023-11-07T17:20:22.045Z,40.00
2023-11-07T17:22:50.471Z,33.00
2023-11-07T17:25:19.391Z,30.33
2023-11-07T17:27:48.338Z,34.50
2023-11-07T17:30:21.398Z,29.00
2023-11-07T17:32:50.384Z,33.50
2023-11-07T17:35:18.754Z,33.50
2023-11-07T17:37:48.612Z,32.00
2023-11-07T17:40:17.411Z,33.00
2023-11-07T17:42:46.020Z,35.00
2023-11-07T17:45:14.736Z,36.00
2023-11-07T17:47:44.749Z,37.00
2023-11-07T17:50:12.965Z,35.00
2023-11-07T17:52:44.166Z,41.00
2023-11-07T17:55:15.518Z,36.50
2023-11-07T17:57:43.740Z,39.00
2023-11-07T18:00:12.760Z,31.00
2023-11-07T18:02:41.337Z,32.00
2023-11-07T18:05:11.461Z,33.00
2023-11-07T18:07:39.819Z,35.00
2023-11-07T18:10:10.497Z,44.50
2023-11-07T18:12:38.960Z,47.00
2023-11-07T18:15:09.658Z,46.50
2023-11-07T18:17:38.088Z,41.50
2023-11-07T18:20:08.527Z,47.00
2023-11-07T18:22:37.618Z,58.00
2023-11-07T18:25:07.495Z,36.00
2023-11-07T18:27:35.754Z,38.00
2023-11-07T18:30:04.552Z,32.00
2023-11-07T18:32:32.725Z,37.50
2023-11-07T18:35:01.697Z,43.75
2023-11-07T18:37:29.946Z,46.00
2023-11-07T18:39:58.617Z,43.00
2023-11-07T18:42:28.108Z,35.67
2023-11-07T18:45:01.230Z,46.00
2023-11-07T18:47:29.537Z,43.50
2023-11-07T18:50:02.527Z,42.00
2023-11-07T18:52:34.144Z,49.00
2023-11-07T18:55:06.612Z,54.00
2023-11-07T18:57:35.488Z,57.00
2023-11-07T19:00:05.063Z,59.50
2023-11-07T19:02:33.245Z,58.00
2023-11-07T19:05:01.508Z,67.00
2023-11-07T19:07:30.592Z,61.00
2023-11-07T19:09:58.883Z,135.00
2023-11-07T19:12:28.031Z,129.50
2023-11-07T19:15:00.744Z,139.00
2023-11-07T19:17:28.994Z,136.00
2023-11-07T19:19:57.118Z,113.00
2023-11-07T19:22:35.193Z,126.00
2023-11-07T19:25:04.014Z,96.50
2023-11-07T19:27:34.722Z,88.00
2023-11-07T19:30:12.006Z,84.00
2023-11-07T19:32:43.613Z,77.00
2023-11-07T19:35:13.562Z,76.00
2023-11-07T19:37:45.432Z,80.50
2023-11-07T19:40:13.587Z,69.00
2023-11-07T19:42:46.245Z,79.33
2023-11-07T19:45:14.478Z,77.50
2023-11-07T19:47:51.282Z,89.00
2023-11-07T19:50:19.386Z,92.00
2023-11-07T19:52:54.589Z,81.00
2023-11-07T19:55:30.778Z,63.00
2023-11-07T19:57:59.735Z,66.50
2023-11-07T20:00:30.528Z,59.00
2023-11-07T20:02:58.686Z,61.00
2023-11-07T20:05:27.706Z,55.00
2023-11-07T20:07:57.092Z,55.00
2023-11-07T20:10:25.900Z,57.00
2023-11-07T20:12:54.203Z,59.00
2023-11-07T20:15:22.258Z,57.50
2023-11-07T20:17:50.336Z,59.00
2023-11-07T20:20:20.149Z,66.00
2023-11-07T20:22:50.858Z,69.00
2023-11-07T20:25:22.139Z,62.00
2023-11-07T20:27:50.123Z,62.00
2023-11-07T20:30:18.495Z,63.00
2023-11-07T20:32:46.730Z,60.00
2023-11-07T20:35:14.924Z,59.00
2023-11-07T20:37:44.111Z,85.00
2023-11-07T20:40:12.463Z,61.00
2023-11-07T20:42:40.584Z,58.00
2023-11-07T20:45:13.409Z,60.00
2023-11-07T20:47:42.462Z,80.00
2023-11-07T20:50:10.671Z,74.00
2023-11-07T20:52:39.658Z,74.00
2023-11-07T20:55:08.085Z,62.50
2023-11-07T20:57:38.940Z,62.00
2023-11-07T21:00:09.001Z,63.50
2023-11-07T21:02:37.954Z,66.33
2023-11-07T21:05:06.372Z,69.00
2023-11-07T21:07:35.197Z,64.50
2023-11-07T21:10:03.495Z,59.00
2023-11-07T21:12:34.060Z,59.00
2023-11-07T21:15:04.128Z,61.00
2023-11-07T21:17:33.002Z,75.00
2023-11-07T21:20:02.262Z,69.00
2023-11-07T21:22:30.181Z,142.33
2023-11-07T21:24:58.076Z,101.67
2023-11-07T21:27:26.197Z,91.50
2023-11-07T21:29:54.250Z,84.00
2023-11-07T21:32:22.324Z,84.50
2023-11-07T21:34:50.491Z,77.33
2023-11-07T21:37:18.684Z,75.50
2023-11-07T21:39:46.619Z,71.00
2023-11-07T21:42:14.629Z,75.00
2023-11-07T21:44:42.916Z,78.00
2023-11-07T21:47:13.227Z,78.00
2023-11-07T21:49:44.639Z,71.00
2023-11-07T21:52:12.725Z,72.00
2023-11-07T21:54:44.087Z,78.50
2023-11-07T21:57:13.475Z,77.00
2023-11-07T21:59:41.634Z,74.67
2023-11-07T22:02:09.901Z,67.00
2023-11-07T22:04:38.376Z,74.00
2023-11-07T22:07:06.470Z,72.00
2023-11-07T22:09:34.556Z,67.50
2023-11-07T22:12:06.220Z,71.00
2023-11-07T22:14:34.253Z,71.00
2023-11-07T22:17:02.338Z,79.00
2023-11-07T22:22:02.166Z,69.00
2023-11-07T22:24:30.307Z,66.50
2023-11-07T22:27:00.417Z,61.67
2023-11-07T22:29:28.460Z,56.50
2023-11-07T22:31:58.166Z,61.00
2023-11-07T22:34:26.402Z,49.00
2023-11-07T22:36:54.535Z,56.00
2023-11-07T22:39:22.485Z,61.50
2023-11-07T22:41:51.058Z,61.00
2023-11-07T22:44:19.455Z,66.00
2023-11-07T22:46:48.775Z,59.50
2023-11-07T22:49:16.881Z,66.00
2023-11-07T22:51:45.096Z,61.00
2023-11-07T22:54:13.204Z,58.00
2023-11-07T22:56:41.183Z,60.50
2023-11-07T22:59:09.147Z,58.00
2023-11-07T23:01:40.139Z,58.00
2023-11-07T23:04:08.684Z,56.00
2023-11-07T23:06:36.655Z,58.00
2023-11-07T23:09:06.104Z,56.00
2023-11-07T23:11:34.225Z,61.00
2023-11-07T23:14:02.218Z,58.00
2023-11-07T23:16:30.414Z,55.00
2023-11-07T23:18:58.624Z,56.00
2023-11-07T23:21:27.295Z,48.50
2023-11-07T23:23:56.216Z,44.50
2023-11-07T23:26:30.976Z,42.00
2023-11-07T23:29:02.896Z,40.00
2023-11-07T23:31:30.809Z,40.00
2023-11-07T23:33:58.924Z,42.00
2023-11-07T23:36:26.933Z,49.00
2023-11-07T23:38:54.966Z,51.00
2023-11-07T23:41:22.910Z,49.00
2023-11-07T23:43:51.474Z,48.00
2023-11-07T23:46:19.747Z,50.50
2023-11-07T23:48:47.785Z,47.00
2023-11-07T23:51:15.900Z,49.00
2023-11-07T23:53:43.896Z,50.00
2023-11-07T23:56:11.809Z,46.50
2023-11-07T23:58:39.862Z,50.00
